Time;durP1;ratioP1;P1;durP2;ratioP2;P2;SDS_P1;SDS_P2;PMS_P1;PMS_P2;Temp;Humidity;BMP_temperature;BMP_pressure;BME280_temperature;BME280_humidity;BME280_pressure;Samples;Min_cycle;Max_cycle;Signal;HPM_P1;HPM_P2
2022/05/01 00:00:47;;;;;;;4.20;3.13;;;9.70;99.90;;;;;;5072987;28;20543;-72
2022/05/01 00:03:30;;;;;;;2.73;2.50;;;9.70;99.90;;;;;;5072733;28;20208;-71
2022/05/01 00:05:59;;;;;;;3.97;3.07;;;9.70;99.90;;;;;;5072579;28;20751;-72
2022/05/01 00:08:25;;;;;;;6.10;3.30;;;9.60;99.90;;;;;;5072405;28;20396;-73
2022/05/01 00:10:50;;;;;;;2.70;2.27;;;9.60;99.90;;;;;;5071253;28;20895;-71
2022/05/01 00:13:16;;;;;;;3.30;3.00;;;9.60;99.90;;;;;;5072450;28;20186;-70
2022/05/01 00:15:45;;;;;;;2.33;2.13;;;9.50;99.90;;;;;;5071965;28;20170;-72
2022/05/01 00:18:10;;;;;;;3.00;2.80;;;9.50;99.90;;;;;;5068269;28;20198;-70
2022/05/01 00:20:36;;;;;;;3.80;2.70;;;9.40;99.90;;;;;;5068160;28;20942;-71
2022/05/01 00:23:02;;;;;;;2.73;2.53;;;9.40;99.90;;;;;;5062096;28;20175;-73
2022/05/01 00:25:28;;;;;;;6.47;2.37;;;9.40;99.90;;;;;;5051695;28;20171;-71
2022/05/01 00:27:54;;;;;;;2.90;2.63;;;9.50;99.90;;;;;;5052603;28;20437;-74
2022/05/01 00:30:20;;;;;;;3.80;3.50;;;9.40;99.90;;;;;;5051789;28;20433;-72
2022/05/01 00:38:13;;;;;;;2.80;2.00;;;9.50;99.90;;;;;;5071617;28;20439;-72
2022/05/01 00:40:39;;;;;;;4.63;2.00;;;9.50;99.90;;;;;;5071486;28;20446;-72
2022/05/01 00:43:05;;;;;;;3.40;2.57;;;9.40;99.90;;;;;;5071179;28;20228;-72
2022/05/01 00:45:31;;;;;;;3.73;3.00;;;9.40;99.90;;;;;;5071369;28;20184;-71
2022/05/01 00:47:57;;;;;;;7.97;2.37;;;9.40;99.90;;;;;;5071376;28;20186;-70
2022/05/01 00:50:23;;;;;;;3.07;2.13;;;9.40;99.90;;;;;;5071395;28;20412;-71
2022/05/01 00:52:49;;;;;;;5.10;2.90;;;9.30;99.90;;;;;;5069924;28;20255;-71
2022/05/01 00:55:15;;;;;;;2.93;2.63;;;9.30;99.90;;;;;;5071326;28;20405;-71
2022/05/01 00:57:42;;;;;;;2.70;2.50;;;9.30;99.90;;;;;;5071336;28;20789;-72
2022/05/01 01:00:08;;;;;;;3.90;2.77;;;9.30;99.90;;;;;;5071304;28;20400;-70
2022/05/01 01:02:33;;;;;;;3.40;2.30;;;9.30;99.90;;;;;;5071358;28;20440;-70
2022/05/01 01:04:59;;;;;;;2.93;2.73;;;9.30;99.90;;;;;;5071156;28;20471;-74
2022/05/01 01:07:27;;;;;;;3.13;2.47;;;9.30;99.90;;;;;;5053230;28;20204;-71
2022/05/01 01:09:53;;;;;;;7.00;3.30;;;9.30;99.90;;;;;;5071288;28;20167;-72
2022/05/01 01:15:09;;;;;;;7.30;3.20;;;9.20;99.90;;;;;;5071279;28;20177;-71
2022/05/01 01:17:42;;;;;;;2.97;2.77;;;9.20;99.90;;;;;;5018792;28;984414;-70
2022/05/01 01:20:12;;;;;;;4.33;2.83;;;9.20;99.90;;;;;;5071363;28;20685;-71
2022/05/01 01:22:43;;;;;;;3.53;2.50;;;9.20;99.90;;;;;;5053633;28;20479;-71
2022/05/01 01:25:10;;;;;;;3.63;1.80;;;9.20;99.90;;;;;;5071666;28;20423;-71
2022/05/01 01:27:38;;;;;;;2.10;1.90;;;9.10;99.90;;;;;;5064109;28;20441;-71
2022/05/01 01:32:50;;;;;;;2.57;2.37;;;9.10;99.90;;;;;;5051337;28;20506;-71
2022/05/01 01:35:21;;;;;;;3.60;2.10;;;9.10;99.90;;;;;;5051613;28;20970;-72
2022/05/01 01:37:48;;;;;;;2.70;2.50;;;9.00;99.90;;;;;;5050139;28;20467;-70
2022/05/01 01:40:20;;;;;;;3.00;2.50;;;9.00;99.90;;;;;;5070945;28;20412;-72
2022/05/01 01:42:46;;;;;;;4.00;1.87;;;9.00;99.90;;;;;;5071777;28;20389;-71
2022/05/01 01:45:17;;;;;;;2.40;2.20;;;9.00;99.90;;;;;;5071453;28;20789;-71
2022/05/01 01:47:49;;;;;;;3.77;2.17;;;9.00;99.90;;;;;;5069990;28;20442;-72
2022/05/01 01:50:16;;;;;;;3.93;2.20;;;8.90;99.90;;;;;;5053442;28;20416;-72
2022/05/01 01:52:46;;;;;;;2.57;2.20;;;8.90;99.90;;;;;;5071285;28;20833;-72
2022/05/01 01:55:13;;;;;;;3.10;2.23;;;8.90;99.90;;;;;;5071456;28;20394;-72
2022/05/01 01:57:39;;;;;;;3.53;2.77;;;8.90;99.90;;;;;;5071038;28;20421;-72
2022/05/01 02:00:06;;;;;;;2.77;2.50;;;8.80;99.90;;;;;;5071061;28;20416;-73
2022/05/01 02:02:32;;;;;;;2.90;2.60;;;8.80;99.90;;;;;;5070905;28;20408;-72
2022/05/01 02:04:57;;;;;;;2.30;1.97;;;8.80;99.90;;;;;;5073569;28;20416;-72
2022/05/01 02:07:22;;;;;;;6.43;2.23;;;8.80;99.90;;;;;;5074664;28;20424;-72
2022/05/01 02:09:48;;;;;;;2.90;2.60;;;8.70;99.90;;;;;;5074454;28;20179;-71
2022/05/01 02:12:14;;;;;;;3.83;2.23;;;8.70;99.90;;;;;;5074393;28;20241;-72
2022/05/01 02:14:39;;;;;;;3.57;2.50;;;8.70;99.90;;;;;;5074377;28;20170;-72
2022/05/01 02:17:04;;;;;;;2.97;2.10;;;8.70;99.90;;;;;;5074076;28;20624;-72
2022/05/01 02:19:30;;;;;;;2.60;2.00;;;8.60;99.90;;;;;;5074346;28;20181;-72
2022/05/01 02:21:56;;;;;;;3.90;2.50;;;8.50;99.90;;;;;;5074363;28;20265;-72
2022/05/01 02:24:23;;;;;;;3.53;2.70;;;8.50;99.90;;;;;;5074129;28;20185;-72
2022/05/01 02:26:49;;;;;;;2.63;2.30;;;8.50;99.90;;;;;;5074300;28;20774;-72
2022/05/01 02:29:15;;;;;;;2.43;2.23;;;8.40;99.90;;;;;;5074191;28;20411;-71
2022/05/01 02:31:42;;;;;;;4.40;2.27;;;8.40;99.90;;;;;;5074037;28;20251;-72
2022/05/01 02:34:09;;;;;;;2.60;1.93;;;8.30;99.90;;;;;;5074233;28;20644;-72
2022/05/01 02:36:34;;;;;;;5.97;1.67;;;8.30;99.90;;;;;;5074001;28;20424;-72
2022/05/01 02:39:00;;;;;;;5.30;2.60;;;8.30;99.90;;;;;;5074161;28;20407;-72
2022/05/01 02:41:26;;;;;;;5.37;2.60;;;8.20;99.90;;;;;;5074019;28;20159;-71
2022/05/01 02:43:52;;;;;;;2.60;2.37;;;8.20;99.90;;;;;;5073731;28;20265;-72
2022/05/01 02:46:17;;;;;;;2.73;2.47;;;8.20;99.90;;;;;;5073566;28;20467;-73
2022/05/01 02:48:43;;;;;;;2.20;1.97;;;8.10;99.90;;;;;;5074065;28;20181;-73
2022/05/01 02:51:10;;;;;;;4.33;2.33;;;8.10;99.90;;;;;;5073551;28;20592;-71
2022/05/01 02:53:36;;;;;;;4.50;2.53;;;8.00;99.90;;;;;;5073516;28;20248;-73
2022/05/01 02:56:02;;;;;;;2.97;2.60;;;8.00;99.90;;;;;;5055609;28;20870;-71
2022/05/01 02:58:28;;;;;;;3.07;2.77;;;7.90;99.90;;;;;;5073678;28;20249;-71
2022/05/01 03:00:54;;;;;;;1.97;1.87;;;7.90;99.90;;;;;;5073725;28;20401;-71
2022/05/01 03:03:20;;;;;;;2.43;2.20;;;7.90;99.90;;;;;;5073525;28;20412;-72
2022/05/01 03:05:45;;;;;;;2.03;1.83;;;7.80;99.90;;;;;;5073435;28;20178;-70
2022/05/01 03:08:12;;;;;;;2.50;2.30;;;7.80;99.90;;;;;;5073534;28;20206;-71
2022/05/01 03:10:38;;;;;;;2.90;2.70;;;7.80;99.90;;;;;;5073530;28;20253;-73
2022/05/01 03:13:03;;;;;;;3.40;2.57;;;7.70;99.90;;;;;;5073579;28;20887;-72
2022/05/01 03:15:29;;;;;;;3.00;1.93;;;7.70;99.90;;;;;;5054494;28;20498;-72
2022/05/01 03:23:22;;;;;;;2.60;2.33;;;7.70;99.90;;;;;;5073183;28;20419;-73
2022/05/01 03:25:48;;;;;;;3.87;2.30;;;7.70;99.90;;;;;;5073117;28;20409;-72
2022/05/01 03:28:13;;;;;;;2.50;2.10;;;7.70;99.90;;;;;;5073197;28;20632;-72
2022/05/01 03:30:39;;;;;;;2.60;2.40;;;7.70;99.90;;;;;;5073268;28;20170;-73
2022/05/01 03:33:07;;;;;;;2.80;2.13;;;7.70;99.90;;;;;;5072892;28;20221;-72
2022/05/01 03:35:35;;;;;;;1.90;1.80;;;7.70;99.90;;;;;;5073019;28;20240;-72
2022/05/01 03:38:03;;;;;;;2.50;2.30;;;7.70;99.90;;;;;;5072994;28;20412;-72
2022/05/01 03:40:29;;;;;;;2.70;2.50;;;7.70;99.90;;;;;;5072863;28;20740;-73
2022/05/01 03:42:54;;;;;;;3.60;2.83;;;7.70;99.90;;;;;;5072946;28;20403;-71
2022/05/01 03:45:20;;;;;;;4.73;2.13;;;7.70;99.90;;;;;;5072698;28;20517;-71
2022/05/01 03:47:46;;;;;;;2.67;2.47;;;7.70;99.90;;;;;;5072887;28;20813;-73
2022/05/01 03:50:12;;;;;;;2.60;2.07;;;7.70;99.90;;;;;;5072899;28;20637;-71
2022/05/01 03:52:37;;;;;;;2.90;2.70;;;7.70;99.90;;;;;;5073132;28;20273;-73
2022/05/01 03:55:04;;;;;;;2.70;2.10;;;7.70;99.90;;;;;;5072693;28;20404;-71
2022/05/01 03:57:32;;;;;;;2.80;2.10;;;7.80;99.90;;;;;;5072810;28;20428;-73
2022/05/01 03:59:58;;;;;;;3.17;2.37;;;7.80;99.90;;;;;;5073012;28;20438;-72
2022/05/01 04:02:23;;;;;;;2.60;2.40;;;7.80;99.90;;;;;;5072811;28;20416;-71
2022/05/01 04:04:49;;;;;;;3.43;2.70;;;7.80;99.90;;;;;;5072602;28;20173;-74
2022/05/01 04:07:15;;;;;;;3.87;2.50;;;7.80;99.90;;;;;;5072416;28;20186;-73
2022/05/01 04:09:41;;;;;;;4.63;2.13;;;7.80;99.90;;;;;;5072435;28;20423;-72
2022/05/01 04:12:07;;;;;;;2.43;2.07;;;7.80;99.90;;;;;;5072586;28;20884;-73
2022/05/01 04:14:33;;;;;;;3.23;2.73;;;7.80;99.90;;;;;;5072717;28;20721;-72
2022/05/01 04:17:01;;;;;;;4.20;2.90;;;7.80;99.90;;;;;;5072503;28;20209;-72
2022/05/01 04:19:30;;;;;;;3.20;3.00;;;7.90;99.90;;;;;;5072765;28;20407;-72
2022/05/01 04:21:56;;;;;;;3.23;1.73;;;7.90;99.90;;;;;;5072893;28;20411;-71
2022/05/01 04:24:23;;;;;;;5.83;2.17;;;7.90;99.90;;;;;;5072697;28;20511;-73
2022/05/01 04:26:48;;;;;;;2.80;2.60;;;7.90;99.90;;;;;;5072447;28;20452;-73
2022/05/01 04:31:58;;;;;;;3.90;2.40;;;8.00;99.90;;;;;;5072227;28;20318;-70
2022/05/01 04:34:23;;;;;;;2.60;2.27;;;8.00;99.90;;;;;;5071972;28;20405;-70
2022/05/01 04:36:49;;;;;;;4.80;2.20;;;8.10;99.90;;;;;;5071720;28;20247;-72
2022/05/01 04:39:14;;;;;;;4.23;2.30;;;8.10;99.90;;;;;;5071573;28;20174;-71
2022/05/01 04:41:39;;;;;;;2.67;2.47;;;8.10;99.90;;;;;;5071491;28;20220;-71
2022/05/01 04:44:05;;;;;;;2.93;2.43;;;8.20;99.90;;;;;;5072202;28;20186;-72
2022/05/01 04:46:30;;;;;;;2.50;2.30;;;8.20;99.90;;;;;;5071529;28;20277;-72
2022/05/01 04:48:56;;;;;;;3.17;2.87;;;8.30;99.90;;;;;;5071770;28;20177;-72
2022/05/01 04:51:22;;;;;;;2.80;2.20;;;8.30;99.90;;;;;;5071901;28;20174;-71
2022/05/01 04:53:47;;;;;;;2.70;2.47;;;8.50;99.90;;;;;;5072304;28;20173;-72
2022/05/01 04:59:01;;;;;;;2.60;2.40;;;8.60;99.90;;;;;;5043221;28;20176;-72
2022/05/01 05:01:27;;;;;;;3.07;2.33;;;8.70;99.90;;;;;;5071741;28;20421;-72
2022/05/01 05:03:52;;;;;;;2.17;2.07;;;8.90;99.90;;;;;;5072111;28;20678;-72
2022/05/01 05:06:18;;;;;;;2.43;2.23;;;8.90;99.90;;;;;;5071330;28;20190;-71
2022/05/01 05:11:27;;;;;;;2.93;2.50;;;9.20;99.90;;;;;;5071497;28;20216;-73
2022/05/01 05:13:53;;;;;;;3.30;3.00;;;9.40;99.90;;;;;;5071469;28;20810;-71
2022/05/01 05:16:19;;;;;;;4.20;2.77;;;9.50;99.90;;;;;;5090140;22;20199;-69
2022/05/01 05:18:44;;;;;;;2.83;2.50;;;9.50;99.90;;;;;;5051206;28;20179;-70
2022/05/01 05:21:09;;;;;;;4.03;2.13;;;9.90;99.90;;;;;;5031745;28;20191;-70
2022/05/01 05:23:35;;;;;;;1.90;1.60;;;10.30;99.90;;;;;;5031616;28;20187;-70
2022/05/01 05:26:01;;;;;;;2.43;2.23;;;10.70;99.90;;;;;;5013565;28;20175;-70
2022/05/01 05:28:26;;;;;;;2.63;2.00;;;11.10;99.90;;;;;;5031599;28;20195;-70
2022/05/01 05:30:52;;;;;;;2.70;2.27;;;11.60;99.90;;;;;;5031650;28;20410;-70
2022/05/01 05:33:18;;;;;;;1.93;1.73;;;11.80;99.90;;;;;;5031568;28;20215;-71
2022/05/01 05:35:45;;;;;;;5.00;2.20;;;12.00;99.90;;;;;;5013677;28;20195;-70
2022/05/01 05:38:10;;;;;;;2.27;2.07;;;12.10;99.90;;;;;;5031467;28;20469;-71
2022/05/01 05:40:36;;;;;;;3.20;2.27;;;12.40;99.90;;;;;;5035031;28;20514;-71
2022/05/01 05:43:01;;;;;;;2.30;2.10;;;12.80;99.90;;;;;;5035132;28;20175;-70
2022/05/01 05:45:27;;;;;;;2.50;2.03;;;12.90;99.90;;;;;;5035011;28;20521;-70
2022/05/01 05:47:53;;;;;;;3.20;2.30;;;13.20;99.90;;;;;;5035160;28;20215;-69
2022/05/01 05:50:19;;;;;;;2.70;2.40;;;13.20;99.90;;;;;;5035042;28;20344;-70
2022/05/01 05:52:45;;;;;;;1.93;1.80;;;13.70;99.90;;;;;;5017319;28;20481;-70
2022/05/01 05:55:11;;;;;;;2.50;2.13;;;14.30;99.90;;;;;;5035062;28;20207;-70
2022/05/01 05:57:36;;;;;;;6.13;2.57;;;14.40;99.90;;;;;;5035017;28;20537;-70
2022/05/01 06:00:03;;;;;;;2.17;1.97;;;14.40;99.90;;;;;;5034880;28;20678;-71
2022/05/01 06:02:29;;;;;;;3.13;2.30;;;14.70;99.90;;;;;;5034964;28;20260;-70
2022/05/01 06:04:54;;;;;;;3.03;2.30;;;14.70;99.90;;;;;;5034893;28;20448;-71
2022/05/01 06:07:19;;;;;;;2.60;2.40;;;14.90;99.90;;;;;;5017124;28;20261;-72
2022/05/01 06:09:45;;;;;;;2.70;1.70;;;15.30;99.90;;;;;;5034908;28;20181;-70
2022/05/01 06:12:11;;;;;;;2.40;2.20;;;15.30;99.90;;;;;;5034815;28;20202;-71
2022/05/01 06:14:36;;;;;;;2.37;1.60;;;15.10;99.90;;;;;;5017183;28;20203;-70
2022/05/01 06:17:02;;;;;;;2.13;1.73;;;15.30;99.90;;;;;;5035109;28;20753;-70
2022/05/01 06:19:27;;;;;;;2.90;1.90;;;15.50;99.90;;;;;;5038172;28;20164;-71
2022/05/01 06:21:52;;;;;;;2.17;1.90;;;15.70;99.80;;;;;;5038062;28;20207;-71
2022/05/01 06:24:18;;;;;;;2.03;1.80;;;16.10;99.40;;;;;;5035200;28;20178;-69
2022/05/01 06:26:43;;;;;;;2.57;2.00;;;16.70;98.40;;;;;;5034700;28;20197;-71
2022/05/01 06:29:09;;;;;;;1.93;1.73;;;16.60;97.90;;;;;;5034306;28;20179;-71
2022/05/01 06:31:38;;;;;;;2.43;1.90;;;16.50;98.10;;;;;;5034445;28;20256;-70
2022/05/01 06:34:04;;;;;;;2.70;2.50;;;16.40;98.50;;;;;;5034497;28;20263;-70
2022/05/01 06:36:29;;;;;;;2.37;1.97;;;17.20;98.10;;;;;;5034198;28;20511;-70
2022/05/01 06:38:55;;;;;;;3.77;2.47;;;17.10;96.60;;;;;;5034399;28;20176;-71
2022/05/01 06:41:21;;;;;;;2.00;1.80;;;17.60;96.40;;;;;;5033980;28;20176;-70
2022/05/01 06:43:46;;;;;;;2.90;1.90;;;17.30;95.80;;;;;;5034188;28;20502;-70
2022/05/01 06:46:13;;;;;;;3.93;3.63;;;17.10;96.40;;;;;;5034010;28;20211;-70
2022/05/01 06:48:38;;;;;;;2.40;2.00;;;17.60;96.00;;;;;;5034151;28;20529;-71
2022/05/01 06:51:04;;;;;;;4.87;2.73;;;17.60;95.70;;;;;;5032723;28;20441;-69
2022/05/01 06:53:29;;;;;;;3.93;1.80;;;17.70;95.60;;;;;;5033893;28;20578;-69
2022/05/01 06:55:56;;;;;;;2.00;1.70;;;17.80;94.50;;;;;;5033883;28;20199;-71
2022/05/01 06:58:22;;;;;;;2.43;2.20;;;17.30;95.50;;;;;;5034151;28;20192;-70
2022/05/01 07:00:49;;;;;;;2.00;1.80;;;17.50;95.30;;;;;;5035722;28;20421;-71
2022/05/01 07:03:14;;;;;;;1.73;1.47;;;17.70;94.50;;;;;;5036527;28;20364;-71
2022/05/01 07:05:39;;;;;;;1.93;1.53;;;17.80;94.10;;;;;;5038049;28;20426;-70
2022/05/01 07:08:05;;;;;;;3.57;2.30;;;18.10;94.20;;;;;;5045128;28;20201;-71
2022/05/01 07:10:30;;;;;;;2.20;1.40;;;18.40;93.30;;;;;;5039811;28;20181;-71
2022/05/01 07:12:56;;;;;;;2.20;1.90;;;18.50;93.40;;;;;;5034184;28;20203;-71
2022/05/01 07:15:21;;;;;;;5.07;2.20;;;18.80;92.90;;;;;;5034098;28;20621;-71
2022/05/01 07:17:47;;;;;;;2.50;2.00;;;18.40;93.10;;;;;;5034445;28;20262;-71
2022/05/01 07:20:12;;;;;;;2.00;1.83;;;18.70;93.00;;;;;;5000971;28;20207;-71
2022/05/01 07:22:38;;;;;;;2.70;2.37;;;19.00;91.40;;;;;;5034484;28;20181;-71
2022/05/01 07:25:04;;;;;;;2.40;1.70;;;19.10;92.20;;;;;;5016182;28;20203;-72
2022/05/01 07:27:30;;;;;;;2.77;1.53;;;19.30;91.50;;;;;;5016317;28;20204;-71
2022/05/01 07:29:55;;;;;;;1.93;1.83;;;18.70;92.00;;;;;;5038028;28;20438;-70
2022/05/01 07:32:21;;;;;;;2.00;1.80;;;19.70;91.80;;;;;;5033808;28;20189;-70
2022/05/01 07:34:46;;;;;;;2.17;1.97;;;20.40;89.20;;;;;;5053096;28;20622;-70
2022/05/01 07:37:13;;;;;;;2.63;2.43;;;20.40;88.10;;;;;;5053357;28;20553;-71
2022/05/01 07:39:39;;;;;;;2.90;2.30;;;19.70;89.00;;;;;;5053000;28;20169;-72
2022/05/01 07:42:04;;;;;;;2.30;2.07;;;19.40;90.00;;;;;;5071466;28;20408;-71
2022/05/01 07:44:30;;;;;;;1.73;1.63;;;18.70;87.20;;;;;;5072873;28;20249;-70
2022/05/01 07:46:55;;;;;;;2.03;1.90;;;18.10;88.30;;;;;;5066281;28;20336;-70
2022/05/01 07:49:21;;;;;;;2.27;2.07;;;17.60;90.00;;;;;;5053189;28;20268;-70
2022/05/01 07:51:47;;;;;;;2.10;1.90;;;17.60;90.90;;;;;;5052776;28;20227;-70
2022/05/01 07:54:12;;;;;;;2.07;1.87;;;17.60;91.00;;;;;;5052625;28;20179;-70
2022/05/01 07:56:38;;;;;;;1.90;1.80;;;17.70;90.70;;;;;;5052777;28;20193;-70
2022/05/01 07:59:04;;;;;;;2.03;1.70;;;17.80;90.70;;;;;;5052885;28;20173;-71
2022/05/01 08:01:29;;;;;;;2.30;1.77;;;17.80;89.60;;;;;;5053150;28;20178;-70
2022/05/01 08:06:39;;;;;;;3.60;2.43;;;17.80;90.10;;;;;;5055428;28;20311;-69
2022/05/01 08:09:05;;;;;;;3.37;2.00;;;17.50;90.10;;;;;;5055415;28;20408;-69
2022/05/01 08:11:31;;;;;;;2.67;2.13;;;17.50;89.00;;;;;;5053445;28;20554;-70
2022/05/01 08:13:56;;;;;;;2.47;2.27;;;17.20;89.70;;;;;;5054076;28;20201;-70
2022/05/01 08:16:22;;;;;;;3.13;1.60;;;17.60;88.50;;;;;;5053365;28;20456;-70
2022/05/01 08:21:52;;;;;;;2.40;1.77;;;17.30;90.20;;;;;;4972287;28;20264;-70
2022/05/01 08:24:18;;;;;;;2.60;2.10;;;17.60;87.90;;;;;;4972674;28;20453;-70
2022/05/01 08:26:47;;;;;;;1.87;1.70;;;17.10;89.30;;;;;;5003071;28;20200;-69
2022/05/01 08:29:15;;;;;;;2.73;1.90;;;17.60;88.90;;;;;;5053204;28;20413;-69
2022/05/01 08:31:44;;;;;;;1.73;1.63;;;17.60;88.20;;;;;;5052393;28;20447;-69
2022/05/01 08:34:10;;;;;;;2.70;2.00;;;17.80;88.60;;;;;;5052450;28;20419;-70
2022/05/01 08:36:36;;;;;;;3.30;2.30;;;17.60;88.30;;;;;;5052371;28;20423;-69
2022/05/01 08:39:02;;;;;;;3.17;2.43;;;17.60;87.60;;;;;;5052200;28;20472;-69
2022/05/01 08:41:30;;;;;;;2.30;2.10;;;17.20;89.50;;;;;;5052395;28;20224;-68
2022/05/01 08:44:00;;;;;;;2.63;1.80;;;17.10;90.00;;;;;;5052197;28;20409;-71
2022/05/01 08:46:53;;;;;;;1.50;1.40;;;17.20;90.30;;;;;;5051932;28;20426;-69
2022/05/01 08:49:20;;;;;;;4.50;2.20;;;16.90;90.10;;;;;;5052152;28;20402;-69
2022/05/01 08:51:46;;;;;;;2.50;2.30;;;17.10;90.00;;;;;;5042289;28;20903;-69
2022/05/01 08:54:13;;;;;;;3.83;2.40;;;16.70;90.40;;;;;;5032897;28;20437;-69
2022/05/01 08:56:41;;;;;;;1.77;1.57;;;16.50;90.70;;;;;;5032305;28;20437;-71
2022/05/01 08:59:09;;;;;;;1.67;1.57;;;16.20;90.90;;;;;;5032424;28;20502;-71
2022/05/01 09:01:35;;;;;;;1.80;1.60;;;16.00;91.60;;;;;;5014960;28;20416;-70
2022/05/01 09:04:02;;;;;;;2.17;1.97;;;16.10;91.40;;;;;;5031419;28;20412;-71
2022/05/01 09:06:28;;;;;;;2.57;1.60;;;16.00;91.30;;;;;;5032395;28;20459;-70
2022/05/01 09:08:56;;;;;;;1.57;1.47;;;16.00;91.10;;;;;;5032427;28;20509;-70
2022/05/01 09:14:06;;;;;;;4.70;2.20;;;15.90;91.20;;;;;;5034230;28;20499;-70
2022/05/01 09:16:36;;;;;;;3.70;2.30;;;15.90;91.20;;;;;;5036213;28;20470;-69
2022/05/01 09:19:02;;;;;;;4.20;2.50;;;15.60;91.70;;;;;;5036821;28;20441;-70
2022/05/01 09:21:50;;;;;;;1.83;1.57;;;15.70;91.80;;;;;;5036991;28;20411;-70
2022/05/01 09:24:28;;;;;;;1.60;1.50;;;15.80;91.40;;;;;;5036152;28;20256;-69
2022/05/01 09:26:55;;;;;;;2.13;1.87;;;15.60;91.60;;;;;;5036136;28;20840;-70
2022/05/01 09:29:26;;;;;;;2.07;1.63;;;15.50;91.70;;;;;;5035903;28;20503;-70
2022/05/01 09:31:52;;;;;;;2.50;1.53;;;15.80;92.00;;;;;;5036286;28;20546;-70
2022/05/01 09:34:23;;;;;;;1.93;1.47;;;15.90;91.80;;;;;;5018075;28;20412;-70
2022/05/01 09:36:49;;;;;;;1.57;1.47;;;16.10;91.60;;;;;;5036450;28;20419;-70
2022/05/01 09:39:18;;;;;;;2.20;1.67;;;16.30;91.30;;;;;;5037063;28;20827;-70
2022/05/01 09:41:44;;;;;;;2.30;1.63;;;16.00;91.30;;;;;;5036280;28;20990;-70
2022/05/01 09:44:13;;;;;;;2.13;1.80;;;16.10;90.90;;;;;;5037258;28;20446;-70
2022/05/01 09:46:39;;;;;;;1.43;1.33;;;16.10;91.00;;;;;;5036038;28;20706;-70
2022/05/01 09:49:13;;;;;;;1.70;1.33;;;16.10;90.90;;;;;;5037026;28;20404;-69
2022/05/01 09:51:46;;;;;;;3.53;1.37;;;16.50;90.60;;;;;;5038911;28;20162;-69
2022/05/01 09:54:18;;;;;;;1.53;1.43;;;16.60;90.00;;;;;;5040310;28;20399;-69
2022/05/01 09:56:43;;;;;;;3.37;1.97;;;16.60;90.20;;;;;;5038415;28;20458;-71
2022/05/01 09:59:09;;;;;;;2.33;1.70;;;16.70;90.10;;;;;;5036090;28;20506;-69
2022/05/01 10:01:34;;;;;;;2.40;1.77;;;16.40;87.10;;;;;;5036081;28;20207;-69
2022/05/01 10:04:04;;;;;;;1.20;1.10;;;16.00;88.10;;;;;;5035657;28;20164;-69
2022/05/01 10:06:31;;;;;;;1.43;1.10;;;16.00;88.10;;;;;;5035806;28;20222;-69
2022/05/01 10:08:57;;;;;;;1.30;1.20;;;16.30;87.80;;;;;;5035686;28;20401;-69
2022/05/01 10:11:29;;;;;;;2.07;1.30;;;16.30;85.90;;;;;;5035527;28;20412;-70
2022/05/01 10:13:56;;;;;;;1.33;1.23;;;16.00;84.90;;;;;;5017445;28;20478;-69
2022/05/01 10:16:21;;;;;;;2.40;1.10;;;16.10;85.50;;;;;;5034944;28;20412;-69
2022/05/01 10:18:47;;;;;;;1.90;1.30;;;16.20;85.00;;;;;;5035610;28;20404;-69
2022/05/01 10:21:13;;;;;;;1.43;1.30;;;16.20;85.00;;;;;;5035613;28;20241;-69
2022/05/01 10:23:40;;;;;;;3.73;1.20;;;16.00;85.80;;;;;;5037167;28;20922;-69
2022/05/01 10:26:19;;;;;;;1.20;1.10;;;16.10;85.40;;;;;;5037822;28;20168;-69
2022/05/01 10:29:06;;;;;;;1.23;1.13;;;16.10;84.20;;;;;;5041111;28;20399;-69
2022/05/01 10:35:23;;;;;;;1.60;1.30;;;16.00;84.90;;;;;;5035522;28;20460;-69
2022/05/01 10:38:09;;;;;;;1.30;1.20;;;15.70;86.20;;;;;;5035558;28;20477;-69
2022/05/01 10:40:40;;;;;;;1.77;1.30;;;15.90;86.60;;;;;;5035097;28;20407;-69
2022/05/01 10:43:27;;;;;;;1.70;1.30;;;15.70;86.20;;;;;;5035680;28;20881;-69
2022/05/01 10:45:54;;;;;;;1.50;1.40;;;15.50;87.60;;;;;;5034997;28;20387;-69
2022/05/01 10:48:33;;;;;;;1.50;1.40;;;15.80;87.60;;;;;;5035850;28;20430;-69
2022/05/01 10:51:39;;;;;;;1.50;1.20;;;16.00;86.50;;;;;;5035703;28;20418;-69
2022/05/01 10:54:30;;;;;;;1.33;1.23;;;15.80;85.30;;;;;;5034673;28;20411;-69
2022/05/01 10:57:06;;;;;;;4.00;1.40;;;15.90;85.70;;;;;;5034467;28;20431;-69
2022/05/01 10:59:34;;;;;;;1.67;1.40;;;15.70;86.10;;;;;;5034943;28;20485;-70
2022/05/01 11:02:03;;;;;;;1.77;1.67;;;15.70;85.70;;;;;;5034511;28;20411;-69
2022/05/01 11:04:49;;;;;;;1.53;1.30;;;15.60;85.90;;;;;;5034489;28;20423;-69
2022/05/01 11:07:17;;;;;;;1.37;1.10;;;15.90;86.20;;;;;;5034475;28;20438;-69
2022/05/01 11:09:47;;;;;;;2.53;1.50;;;15.80;86.10;;;;;;5034308;28;20521;-69
2022/05/01 11:12:19;;;;;;;2.10;1.90;;;15.70;86.40;;;;;;5034017;28;20462;-69
2022/05/01 11:15:25;;;;;;;3.10;2.13;;;15.90;85.90;;;;;;5034409;28;20406;-70
2022/05/01 11:17:52;;;;;;;1.53;1.43;;;15.80;86.60;;;;;;5003982;28;20466;-70
2022/05/01 11:20:21;;;;;;;1.70;1.60;;;15.60;86.80;;;;;;5033400;28;20417;-70
2022/05/01 11:22:47;;;;;;;1.47;1.37;;;15.80;87.10;;;;;;5033246;28;20457;-70
2022/05/01 11:25:34;;;;;;;1.63;1.53;;;15.70;86.30;;;;;;5033304;28;20415;-70
2022/05/01 11:28:00;;;;;;;1.73;1.50;;;15.70;87.30;;;;;;5033641;28;20419;-69
2022/05/01 11:30:31;;;;;;;2.70;1.60;;;16.10;87.40;;;;;;5034496;28;20407;-70
2022/05/01 11:33:02;;;;;;;1.57;1.47;;;15.80;86.80;;;;;;5033964;28;20187;-70
2022/05/01 11:35:51;;;;;;;1.60;1.50;;;15.90;86.40;;;;;;5033754;28;20414;-70
2022/05/01 11:38:16;;;;;;;1.50;1.40;;;16.00;86.50;;;;;;5033573;28;20428;-70
2022/05/01 11:40:53;;;;;;;1.77;1.53;;;16.00;86.10;;;;;;5035644;28;20405;-70
2022/05/01 11:43:20;;;;;;;3.07;1.57;;;15.90;85.50;;;;;;5036898;28;20178;-70
2022/05/01 11:45:47;;;;;;;4.80;2.53;;;15.90;86.10;;;;;;5034858;28;20943;-70
2022/05/01 11:48:18;;;;;;;2.97;2.43;;;15.90;85.90;;;;;;5033698;28;20432;-70
2022/05/01 11:50:45;;;;;;;3.10;2.20;;;15.80;84.80;;;;;;5034123;28;20955;-70
2022/05/01 11:53:24;;;;;;;1.80;1.40;;;15.80;85.00;;;;;;5033674;28;20450;-69
2022/05/01 12:04:29;;;;;;;3.70;2.20;;;15.80;84.80;;;;;;5034556;28;20390;-69
2022/05/01 12:07:05;;;;;;;2.03;1.83;;;15.60;84.60;;;;;;5034118;28;20918;-69
2022/05/01 12:09:34;;;;;;;1.63;1.50;;;15.80;85.10;;;;;;5034454;28;20464;-70
2022/05/01 12:12:00;;;;;;;1.63;1.53;;;15.90;84.70;;;;;;5034042;28;20478;-70
2022/05/01 12:14:26;;;;;;;2.30;1.57;;;16.00;83.80;;;;;;5033641;28;20456;-72
2022/05/01 12:16:52;;;;;;;1.93;1.43;;;16.10;84.20;;;;;;5034208;28;20235;-70
2022/05/01 12:19:18;;;;;;;1.50;1.37;;;16.10;84.90;;;;;;5034504;28;20159;-70
2022/05/01 12:21:43;;;;;;;1.60;1.50;;;16.20;85.10;;;;;;5034407;28;20495;-70
2022/05/01 12:24:12;;;;;;;1.83;1.50;;;16.10;85.00;;;;;;5033813;28;20199;-70
2022/05/01 12:26:47;;;;;;;3.10;1.50;;;16.10;85.50;;;;;;5033983;28;20568;-69
2022/05/01 12:29:14;;;;;;;1.80;1.30;;;16.10;84.90;;;;;;5032934;28;20945;-69
2022/05/01 12:32:01;;;;;;;1.73;1.33;;;16.10;85.60;;;;;;5033688;28;20422;-69
2022/05/01 12:34:29;;;;;;;1.40;1.30;;;16.20;85.00;;;;;;5034033;28;20496;-70
2022/05/01 12:36:56;;;;;;;1.80;1.67;;;16.20;84.80;;;;;;5033645;28;20426;-69
2022/05/01 12:39:24;;;;;;;1.63;1.37;;;16.10;86.10;;;;;;5033588;28;20407;-69
2022/05/01 12:45:11;;;;;;;2.27;2.07;;;16.10;85.70;;;;;;5033681;28;20399;-69
2022/05/01 12:47:42;;;;;;;1.70;1.30;;;15.70;87.10;;;;;;5033546;28;20498;-70
2022/05/01 12:50:29;;;;;;;2.73;1.93;;;15.50;86.70;;;;;;5033467;28;20572;-70
2022/05/01 12:52:57;;;;;;;1.53;1.40;;;15.70;86.80;;;;;;5032950;28;20495;-70
2022/05/01 12:55:34;;;;;;;7.83;2.03;;;15.60;87.10;;;;;;5033256;28;20433;-70
2022/05/01 12:58:04;;;;;;;1.80;1.50;;;15.70;85.70;;;;;;5033057;28;20422;-70
2022/05/01 13:00:40;;;;;;;2.30;1.60;;;15.60;86.80;;;;;;5032735;28;20442;-70
2022/05/01 13:03:28;;;;;;;1.70;1.30;;;15.60;87.60;;;;;;5032892;28;20456;-69
2022/05/01 13:06:03;;;;;;;1.50;1.40;;;15.70;88.50;;;;;;5033201;28;20413;-69
2022/05/01 13:08:32;;;;;;;3.37;1.50;;;15.50;88.70;;;;;;5032820;28;20844;-68
2022/05/01 13:11:14;;;;;;;1.83;1.70;;;15.40;88.00;;;;;;5032987;28;20425;-68
2022/05/01 13:14:06;;;;;;;2.53;2.10;;;15.30;88.00;;;;;;5033067;28;20463;-68
2022/05/01 13:16:31;;;;;;;3.00;1.87;;;15.30;86.60;;;;;;5033434;28;20488;-69
2022/05/01 13:19:20;;;;;;;1.57;1.47;;;15.20;86.10;;;;;;5033399;28;20706;-69
2022/05/01 13:21:48;;;;;;;2.03;1.17;;;15.20;86.30;;;;;;5033151;28;20292;-69
2022/05/01 13:24:18;;;;;;;1.10;1.00;;;15.40;86.50;;;;;;5033043;28;20898;-71
2022/05/01 13:26:43;;;;;;;1.80;1.23;;;15.30;86.00;;;;;;5033168;28;20443;-69
2022/05/01 13:29:11;;;;;;;2.00;1.53;;;15.30;85.70;;;;;;5034095;28;20448;-69
2022/05/01 13:31:38;;;;;;;1.30;1.20;;;15.40;85.20;;;;;;5035758;28;20726;-70
2022/05/01 13:34:04;;;;;;;1.30;1.20;;;15.30;85.10;;;;;;5033332;28;20449;-68
2022/05/01 13:36:31;;;;;;;4.23;1.30;;;15.20;85.90;;;;;;5015815;28;20442;-69
2022/05/01 13:39:00;;;;;;;1.73;1.40;;;15.30;85.50;;;;;;5033669;28;20775;-70
2022/05/01 13:46:55;;;;;;;1.93;1.80;;;15.40;84.00;;;;;;5036474;28;20441;-70
2022/05/01 13:49:22;;;;;;;2.13;1.23;;;15.40;83.60;;;;;;5037608;28;20406;-70